This is the latest recevied weather packets stored in our database for station/object VE3VGJ. If no packets are shown the sender has not sent any weather packets the latest 1 day(s).
| Time | Temp. | Humidity | Pressure | Rain* | Wind** | Luminosity | Snow |
|---|---|---|---|---|---|---|---|
| 1778036767 | 7.22° C | 89% | 1009.2 hPa | 0 mm | - | 0 W/m² | - |
| 1778036463 | 7.22° C | 88% | 1009.2 hPa | 0 mm | - | 0 W/m² | - |
| 1778035856 | 7.22° C | 87% | 1009.3 hPa | 0 mm | - | 0 W/m² | - |
| 1778035554 | 7.22° C | 87% | 1009.2 hPa | 0 mm | - | 0 W/m² | - |
| 1778035250 | 7.22° C | 87% | 1009.5 hPa | 0 mm | - | 0 W/m² | - |
| 1778034946 | 7.22° C | 87% | 1009.5 hPa | 0 mm | - | 0 W/m² | - |
| 1778034644 | 7.22° C | 87% | 1009.5 hPa | 0 mm | - | 0 W/m² | - |
| 1778034341 | 7.22° C | 87% | 1009.7 hPa | 0 mm | - | 0 W/m² | - |
| 1778033736 | 7.22° C | 86% | 1009.5 hPa | 0 mm | - | 0 W/m² | - |
| 1778033433 | 7.22° C | 86% | 1009.3 hPa | 0 mm | - | 0 W/m² | - |
| 1778032828 | 6.67° C | 86% | 1009.4 hPa | 0 mm | - | 0 W/m² | - |
| 1778032525 | 6.67° C | 87% | 1009.1 hPa | 0 mm | - | 0 W/m² | - |
| 1778032222 | 6.67° C | 86% | 1009.3 hPa | 0 mm | - | 0 W/m² | - |
| 1778031919 | 6.67° C | 86% | 1009.2 hPa | 0 mm | - | 0 W/m² | - |
| 1778031615 | 6.67° C | 86% | 1009.2 hPa | 0 mm | - | 0 W/m² | - |
| 1778031313 | 6.67° C | 86% | 1009.2 hPa | 0 mm | - | 0 W/m² | - |
| 1778031010 | 6.67° C | 85% | 1009.3 hPa | 0 mm | - | 0 W/m² | - |
| 1778029496 | 8.33° C | 73% | 1008.7 hPa | 0 mm | - | 0 W/m² | - |
| 1778029191 | 9.44° C | 70% | 1008.6 hPa | 0 mm | - | 0 W/m² | - |
| 1778028889 | 9.44° C | 64% | 1008.6 hPa | 0 mm | - | 0 W/m² | - |
| 1778028584 | 9.44° C | 62% | 1008.4 hPa | 0 mm | - | 0 W/m² | - |
| 1778027978 | 10° C | 60% | 1008.3 hPa | 0 mm | - | 0 W/m² | - |
| 1778027067 | 10° C | 60% | 1008.3 hPa | 0 mm | - | 0 W/m² | - |
| 1778026763 | 10° C | 59% | 1008.1 hPa | 0 mm | - | 1 W/m² | - |
| 1778026460 | 10° C | 59% | 1007.9 hPa | 0 mm | - | 2 W/m² | - |
* Rain latest hour (hover to see other rain measurements)
** Current wind speed in m/s (hover to see current wind gust speed)